Time;durP1;ratioP1;P1;durP2;ratioP2;P2;SDS_P1;SDS_P2;PMS_P1;PMS_P2;Temp;Humidity;BMP_temperature;BMP_pressure;BME280_temperature;BME280_humidity;BME280_pressure;Samples;Min_cycle;Max_cycle;Signal;HPM_P1;HPM_P2
2022/05/28 00:01:55;;;;;;;10.27;1.77;;;11.30;99.90;;;;;;5070218;28;20128;-70
2022/05/28 00:04:21;;;;;;;9.30;1.70;;;11.30;99.90;;;;;;5071438;28;20047;-70
2022/05/28 00:06:46;;;;;;;11.00;1.63;;;11.20;99.90;;;;;;5070190;28;20119;-70
2022/05/28 00:09:12;;;;;;;12.00;2.15;;;11.10;99.90;;;;;;5071674;28;20044;-70
2022/05/28 00:11:43;;;;;;;8.50;1.92;;;11.10;99.90;;;;;;5071177;28;20044;-70
2022/05/28 00:14:10;;;;;;;9.43;2.10;;;11.00;99.90;;;;;;5071480;28;20047;-70
2022/05/28 00:16:36;;;;;;;11.05;2.63;;;11.10;99.90;;;;;;5070057;28;20044;-70
2022/05/28 00:19:03;;;;;;;14.70;2.85;;;11.00;99.90;;;;;;5071381;28;20109;-70
2022/05/28 00:21:29;;;;;;;8.25;1.77;;;10.90;99.90;;;;;;5069936;28;20114;-71
2022/05/28 00:23:54;;;;;;;11.77;2.38;;;10.90;99.90;;;;;;5071341;28;20079;-70
2022/05/28 00:26:20;;;;;;;8.90;2.17;;;10.80;99.90;;;;;;5070030;28;20041;-70
2022/05/28 00:28:46;;;;;;;10.48;1.85;;;10.80;99.90;;;;;;5071324;28;20490;-70
2022/05/28 00:31:12;;;;;;;10.77;1.95;;;10.80;99.90;;;;;;5069556;28;20047;-70
2022/05/28 00:33:38;;;;;;;8.80;1.83;;;10.80;99.90;;;;;;5071154;28;20036;-70
2022/05/28 00:36:06;;;;;;;14.05;2.63;;;10.70;99.90;;;;;;5071410;28;20040;-70
2022/05/28 00:38:32;;;;;;;14.55;2.05;;;10.70;99.90;;;;;;5069950;28;20041;-70
2022/05/28 00:40:59;;;;;;;12.25;2.20;;;10.70;99.90;;;;;;5070743;28;20106;-70
2022/05/28 00:43:27;;;;;;;6.60;1.67;;;10.70;99.90;;;;;;5071226;28;20032;-70
2022/05/28 00:45:59;;;;;;;15.90;4.07;;;10.60;99.90;;;;;;5071038;28;20044;-70
2022/05/28 00:48:29;;;;;;;12.10;2.35;;;10.60;99.90;;;;;;5071102;28;20499;-70
2022/05/28 00:50:56;;;;;;;10.80;1.75;;;10.60;99.90;;;;;;5073123;28;20129;-70
2022/05/28 00:53:23;;;;;;;5.88;2.13;;;10.60;99.90;;;;;;5074786;28;20048;-70
2022/05/28 00:55:48;;;;;;;15.18;1.75;;;10.60;99.90;;;;;;5074640;28;20074;-70
2022/05/28 00:58:15;;;;;;;9.45;1.70;;;10.60;99.90;;;;;;5074626;28;20041;-70
2022/05/28 01:00:41;;;;;;;5.03;1.35;;;10.50;99.90;;;;;;5072829;28;20048;-70
2022/05/28 01:03:29;;;;;;;9.30;1.60;;;10.50;99.90;;;;;;5074447;28;20502;-70
2022/05/28 01:06:21;;;;;;;10.43;2.47;;;10.50;99.90;;;;;;5074563;28;20078;-70
2022/05/28 01:09:08;;;;;;;9.85;2.40;;;10.50;99.90;;;;;;5074425;28;20040;-70
2022/05/28 01:11:48;;;;;;;9.73;2.28;;;10.40;99.90;;;;;;5072655;28;20036;-70
2022/05/28 01:14:28;;;;;;;7.35;1.77;;;10.40;99.90;;;;;;5074331;28;20028;-70
2022/05/28 01:17:00;;;;;;;9.20;2.05;;;10.40;99.90;;;;;;5073065;28;20048;-70
2022/05/28 01:19:47;;;;;;;8.15;1.55;;;10.40;99.90;;;;;;5056170;28;20040;-70
2022/05/28 01:22:28;;;;;;;8.95;1.35;;;10.50;99.90;;;;;;5073929;28;20505;-70
2022/05/28 01:25:08;;;;;;;8.30;2.03;;;10.50;99.90;;;;;;5074126;28;20099;-70
2022/05/28 01:27:42;;;;;;;10.95;1.80;;;10.50;99.90;;;;;;5072764;28;20041;-70
2022/05/28 01:30:10;;;;;;;6.03;1.70;;;10.50;99.90;;;;;;5073952;28;20054;-70
2022/05/28 01:32:37;;;;;;;12.80;2.42;;;10.40;99.90;;;;;;5074142;28;20045;-70
2022/05/28 01:35:09;;;;;;;9.38;2.03;;;10.40;99.90;;;;;;5074021;28;20051;-70
2022/05/28 01:37:36;;;;;;;10.93;2.33;;;10.40;99.90;;;;;;5073913;28;20055;-70
2022/05/28 01:40:05;;;;;;;8.40;1.95;;;10.40;99.90;;;;;;5072345;28;20406;-70
2022/05/28 01:42:32;;;;;;;7.18;1.80;;;10.40;99.90;;;;;;5073992;28;20410;-70
2022/05/28 01:44:58;;;;;;;11.60;1.92;;;10.40;99.90;;;;;;5073811;28;20039;-70
2022/05/28 01:47:24;;;;;;;9.93;1.67;;;10.30;99.90;;;;;;5072395;28;20032;-70
2022/05/28 01:49:51;;;;;;;11.73;2.08;;;10.30;99.90;;;;;;5072243;28;20036;-70
2022/05/28 01:52:20;;;;;;;10.70;1.92;;;10.30;99.90;;;;;;5072168;28;20045;-70
2022/05/28 01:54:48;;;;;;;7.07;1.73;;;10.40;99.90;;;;;;5073507;28;20422;-70
2022/05/28 01:57:14;;;;;;;9.20;1.67;;;10.30;99.90;;;;;;5072252;28;20129;-70
2022/05/28 01:59:41;;;;;;;12.10;1.90;;;10.40;99.90;;;;;;5073343;28;20409;-70
2022/05/28 02:02:10;;;;;;;7.97;1.80;;;10.40;99.90;;;;;;5072250;28;20132;-70
2022/05/28 02:04:38;;;;;;;7.82;2.17;;;10.40;99.90;;;;;;5073340;28;20036;-70
2022/05/28 02:07:05;;;;;;;7.95;1.70;;;10.40;99.90;;;;;;5071973;28;20449;-70
2022/05/28 02:09:39;;;;;;;10.02;2.25;;;10.40;99.90;;;;;;5072088;28;20379;-70
2022/05/28 02:12:08;;;;;;;9.85;1.73;;;10.40;99.90;;;;;;5073172;28;20094;-70
2022/05/28 02:14:58;;;;;;;6.70;1.98;;;10.30;99.90;;;;;;5073201;28;20037;-70
2022/05/28 02:17:41;;;;;;;10.80;2.50;;;10.30;99.90;;;;;;5073076;28;20067;-70
2022/05/28 02:20:25;;;;;;;17.52;2.08;;;10.30;99.90;;;;;;5071460;28;20486;-70
2022/05/28 02:22:59;;;;;;;15.88;2.85;;;10.30;99.90;;;;;;5073226;28;20040;-70
2022/05/28 02:25:31;;;;;;;12.57;2.70;;;10.30;99.90;;;;;;5072825;28;20516;-70
2022/05/28 02:27:59;;;;;;;10.38;2.22;;;10.30;99.90;;;;;;5072902;28;20047;-70
2022/05/28 02:30:25;;;;;;;17.63;3.05;;;10.30;99.90;;;;;;5072555;28;20123;-70
2022/05/28 02:33:02;;;;;;;10.73;2.05;;;10.30;99.90;;;;;;5072965;28;20075;-70
2022/05/28 02:35:28;;;;;;;11.98;2.25;;;10.30;99.90;;;;;;5072727;28;20516;-70
2022/05/28 02:37:54;;;;;;;7.75;2.00;;;10.30;99.90;;;;;;5071655;28;20056;-70
2022/05/28 02:40:20;;;;;;;9.18;2.85;;;10.30;99.90;;;;;;5072232;28;20123;-70
2022/05/28 02:42:45;;;;;;;11.13;2.17;;;10.30;99.90;;;;;;5072390;28;20165;-70
2022/05/28 02:45:11;;;;;;;9.73;2.65;;;10.30;99.90;;;;;;5071150;28;20040;-70
2022/05/28 02:47:37;;;;;;;10.68;2.25;;;10.30;99.90;;;;;;5072855;28;20045;-70
2022/05/28 02:50:03;;;;;;;10.07;2.42;;;10.40;99.90;;;;;;5072050;28;20041;-70
2022/05/28 02:52:28;;;;;;;11.05;2.17;;;10.40;99.90;;;;;;5072426;28;20123;-70
2022/05/28 02:54:54;;;;;;;11.02;2.30;;;10.50;99.90;;;;;;5072391;28;20041;-70
2022/05/28 02:57:19;;;;;;;11.43;2.83;;;10.50;99.90;;;;;;5072204;28;20037;-70
2022/05/28 02:59:45;;;;;;;10.60;3.05;;;10.60;99.90;;;;;;5070876;28;20036;-70
2022/05/28 03:02:10;;;;;;;8.50;2.40;;;10.70;99.90;;;;;;5072131;28;20059;-70
2022/05/28 03:04:36;;;;;;;9.48;2.10;;;10.70;99.90;;;;;;5072301;28;20033;-70
2022/05/28 03:07:02;;;;;;;9.43;2.60;;;10.70;99.90;;;;;;5070796;28;20121;-70
2022/05/28 03:09:27;;;;;;;14.38;2.10;;;10.70;99.90;;;;;;5071952;28;20036;-70
2022/05/28 03:11:53;;;;;;;8.95;2.63;;;10.60;99.90;;;;;;5071824;28;20043;-70
2022/05/28 03:14:19;;;;;;;9.60;2.47;;;10.60;99.90;;;;;;5072104;28;20036;-70
2022/05/28 03:16:45;;;;;;;10.27;2.22;;;10.60;99.90;;;;;;5070762;28;20036;-70
2022/05/28 03:19:11;;;;;;;13.45;2.55;;;10.60;99.90;;;;;;5072162;28;20090;-70
2022/05/28 03:21:37;;;;;;;13.10;2.60;;;10.50;99.90;;;;;;5070557;28;20044;-70
2022/05/28 03:24:03;;;;;;;18.67;2.55;;;10.60;99.90;;;;;;5071958;28;20044;-70
2022/05/28 03:26:30;;;;;;;11.07;2.55;;;10.60;99.90;;;;;;5070346;28;20063;-70
2022/05/28 03:28:58;;;;;;;9.48;2.92;;;10.60;99.90;;;;;;5072108;28;20044;-70
2022/05/28 03:31:26;;;;;;;20.73;3.22;;;10.60;99.90;;;;;;5071514;28;20075;-70
2022/05/28 03:33:52;;;;;;;12.98;2.40;;;10.60;99.90;;;;;;5070590;28;20037;-70
2022/05/28 03:36:19;;;;;;;13.70;2.80;;;10.60;99.90;;;;;;5071893;28;20049;-70
2022/05/28 03:38:44;;;;;;;13.18;2.97;;;10.60;99.90;;;;;;5070749;28;20048;-70
2022/05/28 03:41:10;;;;;;;19.67;3.55;;;10.50;99.90;;;;;;5071279;28;20486;-70
2022/05/28 03:43:36;;;;;;;12.05;2.58;;;10.50;99.90;;;;;;5071874;28;20112;-69
2022/05/28 03:46:02;;;;;;;11.18;2.72;;;10.50;99.90;;;;;;5070404;28;20512;-69
2022/05/28 03:48:30;;;;;;;16.30;3.05;;;10.50;99.90;;;;;;5071662;28;20045;-69
2022/05/28 03:50:56;;;;;;;16.83;3.00;;;10.50;99.90;;;;;;5053365;28;20051;-69
2022/05/28 03:53:21;;;;;;;11.05;2.95;;;10.50;99.90;;;;;;5070308;28;20444;-69
2022/05/28 03:55:47;;;;;;;15.20;3.63;;;10.50;99.90;;;;;;5053542;28;20123;-69
2022/05/28 03:58:14;;;;;;;8.85;2.65;;;10.50;99.90;;;;;;5071633;28;20437;-69
2022/05/28 04:00:40;;;;;;;18.50;3.10;;;10.60;99.90;;;;;;5071338;28;20037;-69
2022/05/28 04:03:06;;;;;;;10.70;2.80;;;10.50;99.90;;;;;;5065987;28;20033;-69
2022/05/28 04:05:32;;;;;;;16.30;3.05;;;10.50;99.90;;;;;;5053545;28;20094;-69
2022/05/28 04:07:58;;;;;;;13.25;2.50;;;10.50;99.90;;;;;;5070194;28;20033;-70
2022/05/28 04:10:24;;;;;;;11.75;2.83;;;10.50;99.90;;;;;;5070940;28;20051;-70
2022/05/28 04:12:50;;;;;;;13.02;3.08;;;10.60;99.90;;;;;;5071406;28;20490;-70
2022/05/28 04:15:16;;;;;;;10.32;2.47;;;10.60;99.90;;;;;;5071415;28;20086;-70
2022/05/28 04:17:41;;;;;;;11.98;3.92;;;10.60;99.90;;;;;;5053666;28;20098;-70
2022/05/28 04:20:10;;;;;;;13.63;3.05;;;10.60;99.90;;;;;;5069729;28;20075;-70
2022/05/28 04:22:35;;;;;;;16.65;2.63;;;10.70;99.90;;;;;;5071321;28;20041;-70
2022/05/28 04:25:01;;;;;;;11.13;2.95;;;10.70;99.90;;;;;;5072345;28;20086;-70
2022/05/28 04:27:27;;;;;;;13.40;2.78;;;10.80;99.90;;;;;;5074195;28;20036;-70
2022/05/28 04:29:52;;;;;;;9.98;2.13;;;10.80;99.90;;;;;;5074785;28;20032;-70
2022/05/28 04:32:18;;;;;;;14.20;2.95;;;10.80;99.90;;;;;;5074751;28;20043;-70
2022/05/28 04:34:43;;;;;;;15.85;3.13;;;10.80;99.90;;;;;;5075135;28;20033;-70
2022/05/28 04:37:09;;;;;;;14.68;3.03;;;10.90;99.90;;;;;;5073704;28;20505;-70
2022/05/28 04:39:35;;;;;;;14.80;3.40;;;10.90;99.90;;;;;;5073750;28;20044;-70
2022/05/28 04:42:00;;;;;;;12.23;2.67;;;10.90;99.90;;;;;;5073476;28;20532;-70
2022/05/28 04:44:26;;;;;;;12.57;2.47;;;10.90;99.90;;;;;;5056818;28;20406;-70
2022/05/28 04:46:51;;;;;;;17.33;3.03;;;10.90;99.90;;;;;;5074798;28;20524;-70
2022/05/28 04:49:17;;;;;;;8.68;2.33;;;10.90;99.90;;;;;;5073759;28;20523;-70
2022/05/28 04:51:43;;;;;;;14.07;2.58;;;10.90;99.90;;;;;;5073051;28;20045;-69
2022/05/28 04:54:08;;;;;;;14.90;3.05;;;10.90;99.90;;;;;;5074541;28;20051;-69
2022/05/28 04:56:34;;;;;;;19.38;3.53;;;11.20;99.90;;;;;;5073242;28;20078;-69
2022/05/28 04:59:00;;;;;;;18.33;3.47;;;11.50;99.90;;;;;;5074566;28;20040;-69
2022/05/28 05:01:26;;;;;;;12.23;3.50;;;11.60;99.90;;;;;;5074278;28;20127;-69
2022/05/28 05:03:52;;;;;;;19.67;3.88;;;11.50;99.90;;;;;;5056514;28;20049;-69
2022/05/28 05:06:18;;;;;;;18.35;3.92;;;11.50;99.90;;;;;;5074360;28;20084;-69
2022/05/28 05:08:44;;;;;;;19.20;3.38;;;11.30;99.90;;;;;;5072932;28;20076;-69
2022/05/28 05:11:10;;;;;;;11.45;3.55;;;11.10;99.90;;;;;;5074071;28;20040;-70
2022/05/28 05:13:36;;;;;;;11.50;3.30;;;11.10;99.90;;;;;;5074293;28;20044;-70
2022/05/28 05:16:07;;;;;;;16.17;3.90;;;11.20;99.90;;;;;;5073213;28;20041;-70
2022/05/28 05:18:33;;;;;;;15.38;3.25;;;11.30;99.90;;;;;;5074204;28;20040;-69
2022/05/28 05:20:58;;;;;;;10.63;2.95;;;11.60;99.90;;;;;;5073702;28;20051;-70
2022/05/28 05:23:24;;;;;;;18.85;4.35;;;11.80;99.90;;;;;;5073030;28;20043;-70
2022/05/28 05:25:49;;;;;;;14.90;2.63;;;12.00;99.90;;;;;;5073949;28;20037;-70
2022/05/28 05:28:15;;;;;;;17.80;4.15;;;12.20;99.90;;;;;;5074151;28;20041;-70
2022/05/28 05:30:40;;;;;;;17.38;2.72;;;12.40;99.90;;;;;;5073680;28;20041;-70
2022/05/28 05:33:06;;;;;;;12.98;3.22;;;12.70;99.90;;;;;;5072682;28;20032;-71
2022/05/28 05:35:31;;;;;;;12.45;4.32;;;12.90;99.90;;;;;;5073498;28;20062;-70
2022/05/28 05:38:05;;;;;;;14.00;2.80;;;13.10;99.90;;;;;;5072815;28;20072;-70
2022/05/28 05:40:31;;;;;;;12.77;3.20;;;13.30;99.90;;;;;;5071995;28;20067;-70
2022/05/28 05:42:58;;;;;;;14.85;2.70;;;13.40;99.90;;;;;;5073866;28;20040;-70
2022/05/28 05:45:23;;;;;;;9.70;2.65;;;13.30;99.90;;;;;;5072432;28;20080;-70
2022/05/28 05:47:49;;;;;;;16.08;2.80;;;13.30;99.90;;;;;;5073674;28;20043;-70
2022/05/28 05:50:14;;;;;;;16.23;3.60;;;13.10;99.90;;;;;;5071890;28;20036;-70
2022/05/28 05:52:40;;;;;;;10.57;2.45;;;13.20;99.90;;;;;;5073822;28;20086;-70
2022/05/28 05:55:06;;;;;;;23.48;4.18;;;13.20;99.90;;;;;;5055602;28;20375;-70
2022/05/28 05:57:32;;;;;;;14.05;2.75;;;13.00;99.90;;;;;;5072365;28;20469;-70
2022/05/28 05:59:57;;;;;;;11.75;3.47;;;12.90;99.90;;;;;;5073217;28;20044;-70
2022/05/28 06:02:23;;;;;;;11.50;3.60;;;12.80;99.90;;;;;;5072052;28;20514;-70
2022/05/28 06:04:49;;;;;;;14.57;2.83;;;12.70;99.90;;;;;;5073139;28;20115;-70
2022/05/28 06:07:14;;;;;;;14.02;2.67;;;12.60;99.90;;;;;;5071891;28;20116;-70
2022/05/28 06:09:40;;;;;;;14.18;3.42;;;12.60;99.90;;;;;;5073119;28;20379;-70
2022/05/28 06:12:06;;;;;;;18.52;3.40;;;12.60;99.90;;;;;;5071563;28;20045;-70
2022/05/28 06:14:32;;;;;;;13.70;2.78;;;12.70;99.90;;;;;;5071840;28;20131;-70
2022/05/28 06:16:57;;;;;;;16.30;3.28;;;13.10;99.90;;;;;;5073081;28;20040;-70
2022/05/28 06:19:23;;;;;;;12.23;2.97;;;13.10;99.90;;;;;;5072860;28;20040;-70
2022/05/28 06:21:49;;;;;;;11.88;2.95;;;13.00;99.90;;;;;;5072919;28;20509;-70
2022/05/28 06:24:14;;;;;;;21.15;3.63;;;12.80;99.90;;;;;;5073044;28;20036;-70
2022/05/28 06:26:40;;;;;;;13.30;3.45;;;12.70;99.90;;;;;;5071484;28;20044;-70
2022/05/28 06:29:05;;;;;;;15.65;3.85;;;12.70;99.90;;;;;;5072947;28;20044;-70
2022/05/28 06:31:31;;;;;;;20.65;3.63;;;13.10;99.90;;;;;;5072444;28;20032;-70
2022/05/28 06:33:56;;;;;;;14.57;3.95;;;13.20;99.90;;;;;;5071705;28;20129;-70
2022/05/28 06:36:22;;;;;;;11.32;2.95;;;13.00;99.90;;;;;;5072646;28;20090;-70
2022/05/28 06:38:48;;;;;;;16.55;3.70;;;12.90;99.90;;;;;;5071655;28;20094;-70
2022/05/28 06:41:14;;;;;;;11.43;2.60;;;12.50;99.90;;;;;;5072241;28;20119;-70
2022/05/28 06:43:39;;;;;;;10.80;2.58;;;12.40;99.90;;;;;;5071390;28;20044;-69
2022/05/28 06:46:08;;;;;;;11.13;3.42;;;12.20;99.90;;;;;;5072143;28;20047;-69
2022/05/28 06:48:35;;;;;;;9.30;2.60;;;12.70;99.90;;;;;;5071900;28;20486;-69
2022/05/28 06:51:01;;;;;;;11.73;2.97;;;13.10;99.90;;;;;;5072275;28;20039;-69
2022/05/28 06:53:29;;;;;;;14.75;2.75;;;13.30;99.90;;;;;;5072177;28;20127;-69
2022/05/28 06:55:54;;;;;;;12.45;2.85;;;13.50;99.90;;;;;;5072441;28;20040;-69
2022/05/28 06:58:20;;;;;;;12.05;2.88;;;13.70;99.90;;;;;;5072228;28;20044;-69
2022/05/28 07:00:45;;;;;;;15.35;4.13;;;13.60;99.90;;;;;;5071880;28;20040;-69
2022/05/28 07:03:17;;;;;;;13.68;3.35;;;13.30;99.90;;;;;;5071979;28;20119;-70
2022/05/28 07:05:42;;;;;;;15.25;2.83;;;13.30;99.90;;;;;;5072258;28;20048;-70
2022/05/28 07:08:09;;;;;;;13.90;2.75;;;13.30;99.90;;;;;;5071994;28;20040;-69
2022/05/28 07:10:38;;;;;;;12.52;2.33;;;13.30;99.90;;;;;;5071696;28;20494;-69
2022/05/28 07:13:05;;;;;;;13.65;2.53;;;13.40;99.90;;;;;;5072044;28;20390;-69
2022/05/28 07:15:30;;;;;;;13.43;2.65;;;13.30;99.90;;;;;;5071981;28;20040;-69
2022/05/28 07:17:56;;;;;;;15.20;4.35;;;13.20;99.90;;;;;;5070915;28;20051;-69
2022/05/28 07:20:22;;;;;;;15.13;2.80;;;13.10;99.90;;;;;;5071805;28;20127;-69
2022/05/28 07:22:47;;;;;;;17.17;3.13;;;13.30;99.90;;;;;;5072029;28;20068;-69
2022/05/28 07:25:13;;;;;;;12.50;4.50;;;13.10;99.90;;;;;;5070485;28;20040;-69
2022/05/28 07:27:38;;;;;;;12.10;2.83;;;13.00;99.90;;;;;;5071452;28;20461;-69
2022/05/28 07:30:05;;;;;;;14.98;3.00;;;12.90;99.90;;;;;;5071219;28;20028;-69
2022/05/28 07:32:31;;;;;;;15.13;2.65;;;12.90;99.90;;;;;;5071993;28;20398;-69
2022/05/28 07:34:57;;;;;;;17.20;2.88;;;12.90;99.90;;;;;;5071836;28;20045;-69
2022/05/28 07:37:24;;;;;;;14.20;2.78;;;12.80;99.90;;;;;;5071320;28;20043;-69
2022/05/28 07:39:50;;;;;;;16.90;2.70;;;12.90;99.90;;;;;;5071334;28;20051;-69
2022/05/28 07:42:16;;;;;;;15.32;2.92;;;13.10;99.90;;;;;;5071568;28;20052;-69
2022/05/28 07:44:41;;;;;;;14.45;3.38;;;13.10;99.90;;;;;;5071490;28;20066;-69
2022/05/28 07:47:07;;;;;;;19.40;4.60;;;13.00;99.90;;;;;;5071448;28;20123;-69
2022/05/28 07:49:36;;;;;;;16.50;3.40;;;12.90;99.90;;;;;;5071541;28;20498;-69
2022/05/28 07:52:02;;;;;;;9.82;2.97;;;12.90;99.90;;;;;;5071418;28;20398;-69
2022/05/28 07:54:28;;;;;;;16.55;2.80;;;12.80;99.90;;;;;;5071644;28;20041;-69
2022/05/28 07:56:53;;;;;;;14.32;2.78;;;12.80;99.90;;;;;;5071546;28;20041;-69
2022/05/28 07:59:19;;;;;;;20.63;2.72;;;13.60;99.90;;;;;;5070142;28;20063;-69
2022/05/28 08:01:45;;;;;;;13.32;2.92;;;14.20;99.90;;;;;;5075508;28;20040;-69
2022/05/28 08:04:11;;;;;;;15.90;3.00;;;13.90;99.90;;;;;;5074575;28;20526;-69
2022/05/28 08:06:37;;;;;;;17.98;3.70;;;13.40;99.90;;;;;;5075541;28;20118;-69
2022/05/28 08:09:05;;;;;;;12.70;2.78;;;13.10;99.90;;;;;;5075614;28;20122;-69
2022/05/28 08:11:31;;;;;;;9.55;2.72;;;13.00;99.90;;;;;;5057133;28;20044;-69
2022/05/28 08:13:57;;;;;;;12.27;3.20;;;13.10;99.90;;;;;;5075285;28;20033;-69
2022/05/28 08:16:23;;;;;;;13.52;2.35;;;13.50;99.90;;;;;;5075613;28;20048;-68
2022/05/28 08:18:49;;;;;;;20.58;3.92;;;14.20;99.90;;;;;;5074194;28;20060;-69
2022/05/28 08:23:59;;;;;;;14.70;2.67;;;14.30;99.50;;;;;;5075354;28;20127;-69
2022/05/28 08:26:25;;;;;;;13.50;3.45;;;14.10;99.50;;;;;;5075077;28;20128;-69
2022/05/28 08:28:52;;;;;;;12.90;2.97;;;13.80;98.90;;;;;;5075398;28;20032;-69
2022/05/28 08:31:19;;;;;;;10.80;2.70;;;13.70;98.40;;;;;;5056826;28;20037;-69
2022/05/28 08:33:46;;;;;;;8.98;2.53;;;13.70;98.10;;;;;;5075274;28;20405;-69
2022/05/28 08:36:11;;;;;;;10.93;2.78;;;13.50;97.50;;;;;;5074972;28;20521;-69
2022/05/28 08:38:37;;;;;;;13.60;2.65;;;13.90;97.70;;;;;;5073574;28;20049;-69
2022/05/28 08:41:08;;;;;;;16.08;3.00;;;14.30;97.10;;;;;;5074305;28;20036;-69
2022/05/28 08:43:36;;;;;;;9.45;1.77;;;15.00;96.40;;;;;;5073878;28;20036;-69
2022/05/28 08:46:03;;;;;;;11.93;2.65;;;15.30;95.00;;;;;;5074756;28;20097;-69
2022/05/28 08:48:40;;;;;;;12.43;2.38;;;15.00;95.20;;;;;;5074835;28;20097;-69
2022/05/28 08:51:13;;;;;;;7.82;2.03;;;14.60;94.20;;;;;;5074375;28;20028;-69
2022/05/28 08:53:47;;;;;;;10.75;2.30;;;14.50;94.30;;;;;;5073379;28;20040;-69
2022/05/28 08:56:18;;;;;;;;;;;15.10;92.10;;;;;;5075290;28;20040;-69
2022/05/28 08:58:45;;;;;;;8.85;2.33;;;15.40;91.90;;;;;;5074790;28;20336;-69
2022/05/28 09:01:16;;;;;;;11.57;2.42;;;15.60;91.70;;;;;;5074272;28;20123;-70
2022/05/28 09:03:54;;;;;;;14.93;2.40;;;15.80;90.30;;;;;;5074424;28;20044;-70
2022/05/28 09:06:46;;;;;;;12.80;2.47;;;15.90;89.70;;;;;;5074682;28;20045;-70
2022/05/28 09:09:14;;;;;;;11.02;2.40;;;15.80;89.90;;;;;;5074373;28;20106;-71
2022/05/28 09:12:01;;;;;;;7.90;1.95;;;15.00;88.10;;;;;;5073823;28;20032;-69
2022/05/28 09:14:31;;;;;;;9.63;2.45;;;14.40;91.40;;;;;;5072968;28;20041;-70
2022/05/28 09:17:01;;;;;;;12.05;2.70;;;13.90;92.60;;;;;;5074408;28;20434;-70
2022/05/28 09:19:33;;;;;;;9.88;2.58;;;13.70;93.80;;;;;;5073101;28;20041;-70
2022/05/28 09:21:59;;;;;;;14.00;2.93;;;13.80;95.20;;;;;;5074023;28;20140;-70
2022/05/28 09:24:30;;;;;;;11.88;3.08;;;13.70;96.70;;;;;;5074078;28;20338;-69
2022/05/28 09:27:03;;;;;;;12.35;2.58;;;13.60;98.00;;;;;;5073995;28;20387;-69
2022/05/28 09:30:19;;;;;;;16.52;4.05;;;13.30;98.50;;;;;;5074068;28;20041;-68
2022/05/28 09:32:44;;;;;;;14.57;3.00;;;13.30;99.30;;;;;;4976174;28;20548;-69
2022/05/28 09:35:42;;;;;;;18.35;3.25;;;13.20;99.10;;;;;;5056831;28;20048;-71
2022/05/28 09:38:44;;;;;;;9.82;3.13;;;13.60;99.20;;;;;;5066639;28;20066;-70
2022/05/28 09:41:32;;;;;;;12.27;3.13;;;13.90;98.90;;;;;;5072207;28;20049;-70
2022/05/28 09:44:17;;;;;;;13.00;3.20;;;14.10;98.50;;;;;;5074037;28;20059;-70
2022/05/28 09:46:44;;;;;;;14.43;3.05;;;14.00;98.80;;;;;;5073771;28;20407;-70
2022/05/28 09:49:15;;;;;;;16.73;4.07;;;13.70;98.90;;;;;;5073662;28;20032;-70
2022/05/28 09:51:54;;;;;;;13.85;3.05;;;13.60;97.90;;;;;;5073332;28;20067;-70
2022/05/28 09:54:27;;;;;;;14.85;3.22;;;13.50;97.50;;;;;;5073834;28;20041;-70
2022/05/28 09:56:55;;;;;;;10.82;2.50;;;13.40;97.40;;;;;;5073811;28;20037;-70
2022/05/28 09:59:29;;;;;;;11.98;2.53;;;14.10;97.20;;;;;;5073588;28;20044;-70
2022/05/28 10:02:04;;;;;;;16.25;3.25;;;14.50;96.60;;;;;;5073182;28;20040;-70
2022/05/28 10:04:30;;;;;;;14.75;3.85;;;14.30;96.60;;;;;;5072065;28;20115;-70
2022/05/28 10:07:00;;;;;;;16.02;2.67;;;14.20;95.70;;;;;;5073335;28;20151;-70
2022/05/28 10:09:29;;;;;;;11.52;2.65;;;14.20;95.20;;;;;;5073381;28;20036;-70
2022/05/28 10:11:59;;;;;;;7.80;2.58;;;14.60;94.50;;;;;;5072904;28;20513;-70
2022/05/28 10:14:28;;;;;;;8.82;2.45;;;14.40;93.30;;;;;;5071955;28;20045;-70
2022/05/28 10:17:02;;;;;;;12.38;2.80;;;14.60;92.90;;;;;;5071863;28;20099;-69
2022/05/28 10:19:41;;;;;;;15.63;2.83;;;14.80;91.50;;;;;;5055085;28;20037;-69
2022/05/28 10:22:14;;;;;;;11.70;2.50;;;14.70;91.10;;;;;;5072379;28;20044;-69
2022/05/28 10:24:43;;;;;;;;;;;14.80;92.00;;;;;;5073424;28;20090;-69
2022/05/28 10:27:24;;;;;;;10.93;2.53;;;14.40;92.70;;;;;;5072788;28;19931;-69
2022/05/28 10:29:51;;;;;;;8.30;2.20;;;14.30;93.40;;;;;;5072736;28;20098;-69
2022/05/28 10:32:22;;;;;;;15.60;3.38;;;14.50;93.30;;;;;;5072877;28;20043;-69
2022/05/28 10:35:11;;;;;;;9.50;2.22;;;14.50;92.30;;;;;;5072828;28;20062;-69
2022/05/28 10:37:37;;;;;;;9.75;1.90;;;14.50;91.10;;;;;;5072060;28;20045;-69
2022/05/28 10:40:10;;;;;;;10.02;2.42;;;14.30;91.80;;;;;;5072087;28;20032;-70
2022/05/28 10:42:37;;;;;;;13.07;2.60;;;14.20;91.90;;;;;;5072834;28;20042;-69
2022/05/28 10:45:04;;;;;;;13.75;2.55;;;14.40;92.70;;;;;;5072698;28;20040;-69
2022/05/28 10:47:39;;;;;;;14.75;2.67;;;14.50;91.90;;;;;;5072581;28;20047;-69
2022/05/28 10:50:16;;;;;;;10.90;2.50;;;14.30;90.30;;;;;;5072044;28;20040;-69
2022/05/28 10:52:58;;;;;;;11.57;2.00;;;14.30;90.80;;;;;;5071411;28;20033;-69
2022/05/28 10:55:37;;;;;;;5.60;1.95;;;14.30;87.80;;;;;;5072199;28;20037;-69
2022/05/28 10:58:30;;;;;;;5.47;1.95;;;14.50;86.60;;;;;;5069415;28;20064;-69
2022/05/28 11:01:14;;;;;;;8.98;2.10;;;14.50;85.80;;;;;;5052237;28;20037;-70
2022/05/28 11:03:42;;;;;;;7.10;1.48;;;14.40;88.00;;;;;;5051052;28;20110;-70
2022/05/28 11:06:26;;;;;;;6.32;1.80;;;14.20;88.90;;;;;;5052252;28;20129;-71
2022/05/28 11:09:16;;;;;;;11.93;1.90;;;14.20;88.40;;;;;;5050932;28;20121;-71
2022/05/28 11:11:59;;;;;;;5.25;1.50;;;14.10;89.70;;;;;;5051960;28;20403;-71
2022/05/28 11:14:59;;;;;;;6.93;1.55;;;13.90;88.50;;;;;;5051175;28;20072;-71
2022/05/28 11:17:56;;;;;;;9.77;2.65;;;14.00;90.00;;;;;;5050688;28;20048;-71
2022/05/28 11:21:01;;;;;;;7.90;1.85;;;14.00;89.10;;;;;;5051674;28;20502;-71
2022/05/28 11:23:38;;;;;;;7.85;1.48;;;13.90;88.90;;;;;;4954666;28;20074;-71
2022/05/28 11:26:12;;;;;;;12.02;2.28;;;13.80;89.00;;;;;;5037526;28;20136;-70
2022/05/28 11:28:59;;;;;;;13.50;2.05;;;13.80;90.60;;;;;;5051828;28;20487;-70
2022/05/28 11:31:41;;;;;;;11.20;2.65;;;13.80;90.00;;;;;;5051422;28;20033;-71
2022/05/28 11:34:18;;;;;;;9.65;2.72;;;13.90;90.10;;;;;;5051742;28;20111;-71
2022/05/28 11:36:51;;;;;;;12.95;2.22;;;13.90;90.50;;;;;;5051920;28;20088;-70
2022/05/28 11:39:49;;;;;;;10.20;2.00;;;14.00;91.10;;;;;;5050772;28;20041;-71
2022/05/28 11:42:41;;;;;;;15.85;2.92;;;14.30;91.40;;;;;;5051436;28;20048;-71
2022/05/28 11:45:16;;;;;;;10.83;2.60;;;14.40;91.40;;;;;;5041746;28;20514;-70
2022/05/28 11:48:03;;;;;;;8.05;1.92;;;14.30;91.60;;;;;;5050488;28;20124;-71
2022/05/28 11:53:52;;;;;;;13.40;2.72;;;14.30;88.60;;;;;;5051764;28;20119;-71
2022/05/28 11:56:22;;;;;;;10.10;1.73;;;14.10;88.20;;;;;;5051664;28;20123;-70
2022/05/28 11:58:56;;;;;;;12.40;1.95;;;14.10;89.50;;;;;;5051570;28;20045;-71
2022/05/28 12:01:29;;;;;;;11.75;2.58;;;14.00;89.60;;;;;;5049677;28;20056;-71
2022/05/28 12:03:55;;;;;;;10.38;2.17;;;14.00;91.10;;;;;;5051650;28;20033;-71
2022/05/28 12:06:26;;;;;;;6.88;1.90;;;13.60;92.50;;;;;;5051417;28;20059;-71
2022/05/28 12:09:05;;;;;;;9.00;2.08;;;13.60;94.70;;;;;;5051292;28;20037;-71
2022/05/28 12:11:30;;;;;;;15.25;3.35;;;13.50;97.00;;;;;;5050209;28;20033;-72
2022/05/28 12:13:59;;;;;;;6.75;2.17;;;13.70;97.30;;;;;;5051192;28;20044;-72
2022/05/28 12:16:31;;;;;;;12.32;2.42;;;13.90;98.00;;;;;;5051224;28;20041;-71
2022/05/28 12:19:15;;;;;;;7.70;2.33;;;14.20;97.90;;;;;;5051117;28;20052;-71
2022/05/28 12:21:43;;;;;;;18.63;2.70;;;14.60;96.80;;;;;;5050451;28;20279;-71
2022/05/28 12:24:31;;;;;;;9.45;2.50;;;14.60;96.90;;;;;;5051291;28;20426;-71
2022/05/28 12:29:54;;;;;;;11.15;2.53;;;14.30;96.90;;;;;;5051094;28;20049;-71
2022/05/28 12:32:22;;;;;;;13.13;2.90;;;14.00;96.80;;;;;;5049690;28;20041;-71
2022/05/28 12:35:20;;;;;;;13.25;1.88;;;13.90;95.50;;;;;;5051354;28;20391;-71
2022/05/28 12:38:15;;;;;;;9.50;1.63;;;14.00;93.20;;;;;;5051284;28;20044;-71
2022/05/28 12:40:56;;;;;;;9.95;2.00;;;14.30;92.20;;;;;;5050395;28;20041;-71
2022/05/28 12:43:26;;;;;;;10.05;2.38;;;14.30;91.50;;;;;;5051390;28;20133;-69
2022/05/28 12:45:54;;;;;;;12.00;2.83;;;14.60;92.70;;;;;;5052044;28;20045;-69
2022/05/28 12:48:25;;;;;;;13.82;3.03;;;14.90;93.10;;;;;;5054901;28;20064;-70
2022/05/28 12:51:31;;;;;;;15.20;3.30;;;14.80;93.10;;;;;;5054486;28;20041;-70
2022/05/28 12:54:00;;;;;;;16.98;2.85;;;14.30;92.20;;;;;;5054814;28;20045;-70
2022/05/28 12:56:35;;;;;;;6.45;2.40;;;14.10;91.90;;;;;;5054836;28;20045;-69
2022/05/28 12:59:29;;;;;;;8.38;2.30;;;13.80;92.40;;;;;;5053549;28;20107;-70
2022/05/28 13:01:59;;;;;;;;;;;14.20;93.30;;;;;;5054739;28;20091;-69
2022/05/28 13:04:34;;;;;;;10.23;2.40;;;14.20;93.40;;;;;;5054660;28;19924;-70
2022/05/28 13:07:01;;;;;;;6.28;2.15;;;14.50;94.10;;;;;;5053293;28;20045;-70